Vancouver, British Columbia

1:19 AM PDT on August 30, 2014 (GMT -0700)
Vancouver | Change Station
CLOSE
Current Station
Airport
Location: Vancouver,
Elevation: 13 ft
Nearby Weather Stations

Elev 13 ft 49.18 °N, 123.17 °W | Updated 19 minutes ago

Overcast
Overcast
57 °F
Feels Like 57 °F
N
8
Wind Variable Wind from East

Today
High -- | Low -- °F
--% Chance of Precip.
Yesterday
High -- | Low -- °F
Precip. -- in
6:26 AM 7:59 PM
Waxing Crescent, 20% visible
Pressure 29.92 in
Visibility 15.0 miles
Clouds Few 4400 ft
Scattered Clouds 7200 ft
Mostly Cloudy 9500 ft
Overcast 24000 ft
Dew Point 54 °F
Humidity 88%
Rainfall 0.00 in
Snow Depth Not available.
UV 0 out of 12
Pollen Not available.
Air Quality Not available.
Flu Activity Not available.
METAR CYVR 300800Z 10007KT 15SM FEW044 SCT072 BKN095 OVC240 14/12 A2992 RMK SC1AC2AC3CI2 SLP131

More Conditions Fewer Conditions

Pressure 29.92 in
Visibility 15.0 miles
Clouds Few 4400 ft
Scattered Clouds 7200 ft
Mostly Cloudy 9500 ft
Overcast 24000 ft
Dew Point 54 °F
Humidity 88%
Rainfall 0.00 in
Snow Depth Not available.
UV 0 out of 12
Pollen Not available.
Air Quality Not available.
Flu Activity Not available.
METAR CYVR 300800Z 10007KT 15SM FEW044 SCT072 BKN095 OVC240 14/12 A2992 RMK SC1AC2AC3CI2 SLP131

More Conditions Fewer Conditions

10-Day Weather Forecast

Almanac

Astronomy

Aug. 30, 2014 Rise Set
Actual Time 6:26 AM PDT 7:59 PM PDT
Civil Twilight 5:53 AM PDT 8:32 PM PDT
Nautical Twilight 5:12 AM PDT 9:12 PM PDT
Astronomical Twilight 4:28 AM PDT 9:56 PM PDT
Moon 11:48 AM PDT 10:06 PM PDT
Length of Visible Light 14h 39m
Length of Day
13h 32m
Tomorrow will be 3m 30s shorter.
Waxing Crescent, 20% of the Moon is Illuminated
Today
Waxing Crescent
Sep 2
First Quarter
Sep 8
Full
Sep 15
Last Quarter
Sep 24
New

Yesterday's Extremes

Country Highs Country Lows

Community

WunderPhotos

Upload Photos

1,748,468 photos uploaded!

Nearby

Snow Depth

Not available.

Earthquake Activity

City Distance Mag. Time & Date
No recent earthquake activity has been reported nearby.
Minimum magnitude displayed is 2.5.

Coastal Water Temperatures

Place Temperature
No Stations Reporting

Nearby Weather Stations